createdAt,value
2023-10-06T00:02:49.458Z,100958.51
2023-10-06T00:07:51.952Z,100966.35
2023-10-06T00:12:59.847Z,100970.52
2023-10-06T00:18:04.435Z,100980.67
2023-10-06T00:23:08.141Z,100983.02
2023-10-06T00:28:19.271Z,100986.41
2023-10-06T00:33:21.436Z,100989.28
2023-10-06T00:38:23.106Z,100997.68
2023-10-06T00:43:45.406Z,101001.47
2023-10-06T00:48:55.260Z,101008.70
2023-10-06T00:53:58.017Z,101014.21
2023-10-06T00:59:05.385Z,101020.81
2023-10-06T01:04:11.476Z,101023.42
2023-10-06T01:09:13.013Z,101027.27
2023-10-06T01:14:35.753Z,101032.47
2023-10-06T01:19:38.106Z,101034.95
2023-10-06T01:24:39.694Z,101041.45
2023-10-06T01:29:43.324Z,101045.05
2023-10-06T01:34:46.237Z,101043.52
2023-10-06T01:39:49.743Z,101050.20
2023-10-06T01:44:51.471Z,101051.70
2023-10-06T01:49:53.028Z,101056.98
2023-10-06T01:54:59.682Z,101057.95
2023-10-06T02:00:01.189Z,101059.07
2023-10-06T02:05:02.733Z,101068.42
2023-10-06T02:10:05.062Z,101069.54
2023-10-06T02:15:11.764Z,101075.11
2023-10-06T02:20:30.402Z,101078.42
2023-10-06T02:25:33.018Z,101082.78
2023-10-06T02:30:35.277Z,101080.41
2023-10-06T02:35:37.372Z,101085.30
2023-10-06T02:40:46.516Z,101089.46
2023-10-06T02:45:48.662Z,101091.92
2023-10-06T02:50:55.820Z,101093.35
2023-10-06T02:55:57.524Z,101097.86
2023-10-06T03:00:59.305Z,101100.66
2023-10-06T03:06:08.460Z,101105.16
2023-10-06T03:11:13.425Z,101109.65
2023-10-06T03:16:21.045Z,101117.41
2023-10-06T03:21:23.865Z,101123.23
2023-10-06T03:26:35.829Z,101127.66
2023-10-06T03:31:46.548Z,101135.36
2023-10-06T03:36:52.940Z,101134.96
2023-10-06T03:42:02.477Z,101140.39
2023-10-06T03:47:09.174Z,101146.87
2023-10-06T03:52:14.333Z,101152.66
2023-10-06T03:57:17.127Z,101151.08
2023-10-06T04:02:20.317Z,101153.09
2023-10-06T04:07:24.907Z,101151.67
2023-10-06T04:12:27.079Z,101151.98
2023-10-06T04:17:30.738Z,101158.52
2023-10-06T04:22:33.265Z,101166.91
2023-10-06T04:27:36.186Z,101163.27
2023-10-06T04:32:39.590Z,101164.63
2023-10-06T04:37:41.214Z,101169.23
2023-10-06T04:42:42.876Z,101170.08
2023-10-06T04:47:44.514Z,101173.16
2023-10-06T04:52:48.167Z,101176.48
2023-10-06T04:57:50.081Z,101184.65
2023-10-06T05:02:51.665Z,101189.34
2023-10-06T05:07:55.160Z,101194.14
2023-10-06T05:12:57.042Z,101191.71
2023-10-06T05:18:00.160Z,101199.41
2023-10-06T05:23:11.069Z,101210.70
2023-10-06T05:28:14.564Z,101207.21
2023-10-06T05:33:16.089Z,101210.23
2023-10-06T05:38:17.912Z,101209.51
2023-10-06T05:43:19.596Z,101213.58
2023-10-06T05:48:26.240Z,101225.70
2023-10-06T05:53:31.596Z,101241.55
2023-10-06T05:58:35.716Z,101250.23
2023-10-06T06:03:40.212Z,101258.48
2023-10-06T06:08:44.625Z,101268.64
2023-10-06T06:13:52.706Z,101272.19
2023-10-06T06:18:57.588Z,101278.24
2023-10-06T06:23:59.544Z,101281.12
2023-10-06T06:29:04.274Z,101286.81
2023-10-06T06:34:06.155Z,101293.30
2023-10-06T06:39:11.632Z,101294.21
2023-10-06T06:44:14.258Z,101292.59
2023-10-06T06:49:15.925Z,101288.61
2023-10-06T06:54:17.483Z,101291.58
2023-10-06T06:59:20.359Z,101287.20
2023-10-06T07:04:27.238Z,101288.20
2023-10-06T07:09:28.808Z,101285.05
2023-10-06T07:14:31.090Z,101285.98
2023-10-06T07:19:32.614Z,101290.92
2023-10-06T07:24:34.972Z,101298.86
2023-10-06T07:29:36.547Z,101304.11
2023-10-06T07:34:38.109Z,101308.71
2023-10-06T07:39:39.618Z,101310.85
2023-10-06T07:44:41.190Z,101315.58
2023-10-06T07:49:43.720Z,101323.27
2023-10-06T07:54:45.424Z,101321.73
2023-10-06T07:59:47.889Z,101321.63
2023-10-06T08:04:49.464Z,101319.05
2023-10-06T08:09:52.966Z,101307.20
2023-10-06T08:14:55.666Z,101309.88
2023-10-06T08:19:57.189Z,101307.27
2023-10-06T08:24:59.925Z,101305.39
2023-10-06T08:30:01.629Z,101300.20
2023-10-06T08:35:03.526Z,101297.33
2023-10-06T08:40:08.881Z,101299.14
2023-10-06T08:45:11.573Z,101304.04
2023-10-06T08:50:15.166Z,101312.23
2023-10-06T08:55:19.261Z,101305.85
2023-10-06T09:00:25.803Z,101303.19
2023-10-06T09:05:29.674Z,101301.58
2023-10-06T09:10:35.942Z,101301.18
2023-10-06T09:15:40.281Z,101300.36
2023-10-06T09:20:41.962Z,101301.32
2023-10-06T09:25:47.443Z,101294.52
2023-10-06T09:31:03.273Z,101288.02
2023-10-06T09:36:32.011Z,101292.08
2023-10-06T09:41:39.448Z,101290.46
2023-10-06T09:46:44.539Z,101292.33
2023-10-06T09:51:47.382Z,101292.67
2023-10-06T09:56:49.476Z,101292.17
2023-10-06T10:01:52.939Z,101289.14
2023-10-06T10:06:56.170Z,101281.95
2023-10-06T10:12:09.474Z,101287.94
2023-10-06T10:17:24.388Z,101289.02
2023-10-06T10:22:26.470Z,101279.98
2023-10-06T10:27:28.613Z,101266.95
2023-10-06T10:32:30.692Z,101261.09
2023-10-06T10:37:32.474Z,101249.95
2023-10-06T10:42:42.338Z,101243.91
2023-10-06T10:47:44.144Z,101240.69
2023-10-06T10:52:45.806Z,101244.19
2023-10-06T10:57:47.434Z,101240.64
2023-10-06T11:02:52.153Z,101238.70
2023-10-06T11:08:00.876Z,101237.80
2023-10-06T11:13:20.473Z,101233.31
2023-10-06T11:18:23.897Z,101234.46
2023-10-06T11:23:25.841Z,101226.44
2023-10-06T11:28:42.221Z,101225.73
2023-10-06T11:33:43.837Z,101223.58
2023-10-06T11:38:46.342Z,101224.89
2023-10-06T11:43:56.045Z,101207.92
2023-10-06T11:49:12.719Z,101204.75
2023-10-06T11:54:15.009Z,101199.21
2023-10-06T11:59:23.665Z,101189.30
2023-10-06T12:04:32.934Z,101180.75
2023-10-06T12:09:35.094Z,101163.96
2023-10-06T12:14:37.810Z,101153.40
2023-10-06T12:19:39.731Z,101148.06
2023-10-06T12:24:41.709Z,101141.23
2023-10-06T12:29:43.285Z,101138.56
2023-10-06T12:34:44.826Z,101133.34
2023-10-06T12:39:46.919Z,101116.82
2023-10-06T12:44:48.509Z,101110.80
2023-10-06T12:49:50.040Z,101104.84
2023-10-06T12:54:52.928Z,101097.98
2023-10-06T12:59:57.193Z,101096.26
2023-10-06T13:05:08.964Z,101085.98
2023-10-06T13:10:11.238Z,101082.92
2023-10-06T13:15:15.690Z,101080.98
2023-10-06T13:20:18.085Z,101071.66
2023-10-06T13:25:19.836Z,101067.69
2023-10-06T13:30:21.845Z,101065.77
2023-10-06T13:35:25.773Z,101071.05
2023-10-06T13:40:29.815Z,101062.23
2023-10-06T13:45:32.457Z,101049.16
2023-10-06T13:50:34.529Z,101022.09
2023-10-06T13:55:36.398Z,101002.29
2023-10-06T14:00:41.766Z,100988.36
2023-10-06T14:05:47.618Z,100973.20
2023-10-06T14:10:51.065Z,100979.02
2023-10-06T14:15:56.260Z,100978.19
2023-10-06T14:21:04.140Z,100978.67
2023-10-06T14:26:10.776Z,100970.66
2023-10-06T14:31:27.126Z,100965.69
2023-10-06T14:36:29.553Z,100968.02
2023-10-06T14:41:49.875Z,100963.41
2023-10-06T14:46:53.275Z,100951.71
2023-10-06T14:51:59.957Z,100939.30
2023-10-06T14:57:06.552Z,100937.44
2023-10-06T15:02:11.442Z,100924.69
2023-10-06T15:07:16.239Z,100924.45
2023-10-06T15:12:18.544Z,100919.67
2023-10-06T15:17:25.682Z,100912.78
2023-10-06T15:22:27.766Z,100895.56
2023-10-06T15:27:29.329Z,100894.88
2023-10-06T15:32:31.914Z,100906.19
2023-10-06T15:37:33.968Z,100907.69
2023-10-06T15:42:39.643Z,100896.55
2023-10-06T15:47:41.327Z,100891.89
2023-10-06T15:52:42.971Z,100897.71
2023-10-06T15:57:44.557Z,100883.61
2023-10-06T16:02:47.846Z,100868.91
2023-10-06T16:07:52.045Z,100870.52
2023-10-06T16:12:54.641Z,100868.65
2023-10-06T16:17:56.462Z,100859.89
2023-10-06T16:23:01.032Z,100855.52
2023-10-06T16:28:06.526Z,100859.38
2023-10-06T16:33:08.960Z,100853.84
2023-10-06T16:38:11.902Z,100847.92
2023-10-06T16:43:13.786Z,100840.59
2023-10-06T16:48:15.669Z,100833.90
2023-10-06T16:53:17.875Z,100824.69
2023-10-06T16:58:21.117Z,100822.54
2023-10-06T17:03:22.848Z,100817.93
2023-10-06T17:08:26.202Z,100805.36
2023-10-06T17:13:28.663Z,100802.52
2023-10-06T17:18:30.254Z,100803.30
2023-10-06T17:23:33.201Z,100798.16
2023-10-06T17:28:34.774Z,100794.14
2023-10-06T17:33:36.349Z,100783.33
2023-10-06T17:38:38.146Z,100783.70
2023-10-06T17:43:40.037Z,100767.20
2023-10-06T17:48:49.228Z,100754.27
2023-10-06T17:53:52.264Z,100753.75
2023-10-06T17:58:53.868Z,100731.47
2023-10-06T18:03:55.899Z,100717.11
2023-10-06T18:08:57.808Z,100696.36
2023-10-06T18:13:59.526Z,100689.05
2023-10-06T18:19:01.892Z,100686.73
2023-10-06T18:24:03.657Z,100689.05
2023-10-06T18:29:05.647Z,100673.91
2023-10-06T18:34:07.485Z,100663.40
2023-10-06T18:39:14.540Z,100649.21
2023-10-06T18:44:18.144Z,100640.42
2023-10-06T18:49:19.834Z,100638.12
2023-10-06T18:54:22.930Z,100631.45
2023-10-06T18:59:24.447Z,100625.79
2023-10-06T19:04:26.491Z,100605.51
2023-10-06T19:09:28.210Z,100593.27
2023-10-06T19:14:30.985Z,100592.56
2023-10-06T19:19:32.615Z,100582.30
2023-10-06T19:24:37.341Z,100572.91
2023-10-06T19:29:40.605Z,100572.39
2023-10-06T19:34:42.614Z,100571.52
2023-10-06T19:39:44.458Z,100558.55
2023-10-06T19:44:46.121Z,100550.90
2023-10-06T19:49:48.177Z,100540.16
2023-10-06T19:54:50.890Z,100533.91
2023-10-06T19:59:52.507Z,100530.78
2023-10-06T20:04:54.106Z,100520.83
2023-10-06T20:09:55.942Z,100511.06
2023-10-06T20:15:00.256Z,100505.26
2023-10-06T20:20:02.679Z,100497.86
2023-10-06T20:25:08.127Z,100488.39
2023-10-06T20:30:11.720Z,100476.79
2023-10-06T20:35:14.414Z,100473.14
2023-10-06T20:40:26.200Z,100458.73
2023-10-06T20:45:29.756Z,100453.61
2023-10-06T20:50:33.589Z,100453.42
2023-10-06T20:55:36.069Z,100454.62
2023-10-06T21:00:38.036Z,100453.40
2023-10-06T21:05:40.507Z,100459.38
2023-10-06T21:10:42.172Z,100460.80
2023-10-06T21:15:43.778Z,100467.11
2023-10-06T21:20:46.546Z,100457.38
2023-10-06T21:25:52.389Z,100453.54
2023-10-06T21:30:54.083Z,100449.94
2023-10-06T21:35:55.617Z,100436.17
2023-10-06T21:41:01.205Z,100427.63
2023-10-06T21:46:06.801Z,100412.14
2023-10-06T21:51:08.912Z,100405.21
2023-10-06T21:56:13.644Z,100393.70
2023-10-06T22:01:22.801Z,100392.20
2023-10-06T22:06:24.450Z,100387.69
2023-10-06T22:11:26.220Z,100373.29
2023-10-06T22:16:28.458Z,100366.14
2023-10-06T22:21:30.995Z,100353.40
2023-10-06T22:26:32.701Z,100350.88
2023-10-06T22:31:34.389Z,100341.06
2023-10-06T22:36:38.199Z,100330.89
2023-10-06T22:41:40.419Z,100323.37
2023-10-06T22:46:42.657Z,100312.20
2023-10-06T22:51:45.232Z,100293.70
2023-10-06T22:56:47.484Z,100288.86
2023-10-06T23:01:49.753Z,100283.99
2023-10-06T23:06:52.204Z,100275.13
2023-10-06T23:11:53.784Z,100262.60
2023-10-06T23:16:55.390Z,100259.52
2023-10-06T23:21:56.973Z,100253.12
2023-10-06T23:26:58.540Z,100239.65
2023-10-06T23:32:00.221Z,100226.84
2023-10-06T23:37:01.969Z,100210.26
2023-10-06T23:42:03.559Z,100190.51
2023-10-06T23:47:11.378Z,100180.65
2023-10-06T23:52:15.074Z,100165.92
2023-10-06T23:57:16.886Z,100155.17
